Time,TemperatureF,DewpointF,PressureIn,WindDirection,WindDirectionDegrees,WindSpeedMPH,WindSpeedGustMPH,Humidity,HourlyPrecipIn,Conditions,Clouds,dailyrainin,SolarRadiationWatts/m^2,SoftwareType,DateUTC
2013-03-22 00:08:00,60.3,21.0,29.60,NW,313,3.0,4.0,22,0.00,,,0.00,0,weatherlink.com 1.10,2013-03-22 07:08:00,
2013-03-22 00:23:00,60.3,22.0,29.60,ENE,78,2.0,5.0,23,0.00,,,0.00,0,weatherlink.com 1.10,2013-03-22 07:23:00,
2013-03-22 00:38:00,60.3,22.0,29.61,West,266,3.0,9.0,23,0.00,,,0.00,0,weatherlink.com 1.10,2013-03-22 07:38:00,
2013-03-22 00:53:00,59.2,22.0,29.61,North,359,1.0,4.0,24,0.00,,,0.00,0,weatherlink.com 1.10,2013-03-22 07:53:00,
2013-03-22 01:08:00,59.3,23.0,29.60,NNW,330,0.0,4.0,25,0.00,,,0.00,0,weatherlink.com 1.10,2013-03-22 08:08:00,
2013-03-22 01:23:00,59.0,23.0,29.60,SE,133,2.0,6.0,25,0.00,,,0.00,0,weatherlink.com 1.10,2013-03-22 08:23:00,
2013-03-22 01:38:00,58.6,23.0,29.60,SSW,201,2.0,5.0,25,0.00,,,0.00,0,weatherlink.com 1.10,2013-03-22 08:38:00,
2013-03-22 01:53:00,57.4,23.0,29.59,West,272,5.0,5.0,27,0.00,,,0.00,0,weatherlink.com 1.10,2013-03-22 08:53:00,
2013-03-22 02:09:00,56.9,24.0,29.59,West,273,0.0,2.0,28,0.00,,,0.00,0,weatherlink.com 1.10,2013-03-22 09:09:00,
2013-03-22 02:24:00,56.6,24.0,29.58,NE,35,0.0,3.0,28,0.00,,,0.00,0,weatherlink.com 1.10,2013-03-22 09:24:00,
2013-03-22 02:39:00,55.9,25.0,29.57,NE,55,0.0,2.0,30,0.00,,,0.00,0,weatherlink.com 1.10,2013-03-22 09:39:00,
2013-03-22 02:54:00,55.7,25.0,29.57,NE,55,0.0,1.0,31,0.00,,,0.00,0,weatherlink.com 1.10,2013-03-22 09:54:00,
2013-03-22 03:09:00,56.3,26.0,29.56,South,179,0.0,3.0,31,0.00,,,0.00,0,weatherlink.com 1.10,2013-03-22 10:09:00,
2013-03-22 03:24:00,56.7,25.0,29.56,SSE,158,0.0,4.0,30,0.00,,,0.00,0,weatherlink.com 1.10,2013-03-22 10:24:00,
2013-03-22 03:39:00,56.1,26.0,29.56,SSE,160,0.0,4.0,31,0.00,,,0.00,0,weatherlink.com 1.10,2013-03-22 10:39:00,
2013-03-22 03:54:00,56.2,27.0,29.55,SSW,194,1.0,5.0,32,0.00,,,0.00,0,weatherlink.com 1.10,2013-03-22 10:54:00,
2013-03-22 04:09:00,56.3,27.0,29.54,South,178,1.0,8.0,32,0.00,,,0.00,0,weatherlink.com 1.10,2013-03-22 11:09:00,
2013-03-22 04:24:00,56.1,28.0,29.55,SW,233,0.0,3.0,34,0.00,,,0.00,0,weatherlink.com 1.10,2013-03-22 11:24:00,
2013-03-22 04:39:00,55.5,27.0,29.57,NW,326,0.0,3.0,34,0.00,,,0.00,0,weatherlink.com 1.10,2013-03-22 11:39:00,
2013-03-22 04:54:00,55.6,28.0,29.57,NNW,337,1.0,5.0,35,0.00,,,0.00,0,weatherlink.com 1.10,2013-03-22 11:54:00,
2013-03-22 05:09:00,55.9,29.0,29.57,ENE,72,3.0,7.0,36,0.00,,,0.00,0,weatherlink.com 1.10,2013-03-22 12:09:00,
2013-03-22 05:24:00,56.3,29.0,29.58,SW,214,0.0,8.0,35,0.00,,,0.00,0,weatherlink.com 1.10,2013-03-22 12:24:00,
2013-03-22 05:39:00,56.0,29.0,29.58,WNW,302,0.0,5.0,36,0.00,,,0.00,0,weatherlink.com 1.10,2013-03-22 12:39:00,
2013-03-22 05:54:00,54.4,29.0,29.58,ENE,70,1.0,4.0,38,0.00,,,0.00,0,weatherlink.com 1.10,2013-03-22 12:54:00,
2013-03-22 06:09:00,54.6,29.0,29.58,East,90,1.0,6.0,38,0.00,,,0.00,0,weatherlink.com 1.10,2013-03-22 13:09:00,
2013-03-22 06:24:00,53.8,29.0,29.59,ENE,76,1.0,2.0,39,0.00,,,0.00,5,weatherlink.com 1.10,2013-03-22 13:24:00,
2013-03-22 06:39:00,53.2,30.0,29.59,ESE,117,1.0,3.0,41,0.00,,,0.00,19,weatherlink.com 1.10,2013-03-22 13:39:00,
2013-03-22 06:54:00,53.7,30.0,29.60,East,95,0.0,4.0,40,0.00,,,0.00,46,weatherlink.com 1.10,2013-03-22 13:54:00,
2013-03-22 07:09:00,54.1,31.0,29.61,East,79,1.0,4.0,41,0.00,,,0.00,72,weatherlink.com 1.10,2013-03-22 14:09:00,
2013-03-22 07:24:00,54.7,31.0,29.61,SW,234,1.0,5.0,40,0.00,,,0.00,74,weatherlink.com 1.10,2013-03-22 14:24:00,
2013-03-22 07:39:00,54.2,31.0,29.61,SW,217,1.0,4.0,41,0.00,,,0.00,121,weatherlink.com 1.10,2013-03-22 14:39:00,
2013-03-22 07:54:00,54.6,31.0,29.62,SW,219,0.0,3.0,41,0.00,,,0.00,183,weatherlink.com 1.10,2013-03-22 14:54:00,
2013-03-22 08:09:00,55.3,31.0,29.62,NW,317,0.0,2.0,40,0.00,,,0.00,197,weatherlink.com 1.10,2013-03-22 15:09:00,
2013-03-22 08:24:00,55.6,31.0,29.62,WSW,244,1.0,4.0,40,0.00,,,0.00,246,weatherlink.com 1.10,2013-03-22 15:24:00,
2013-03-22 08:39:00,56.0,32.0,29.62,ESE,122,2.0,3.0,40,0.00,,,0.00,239,weatherlink.com 1.10,2013-03-22 15:39:00,
2013-03-22 08:55:00,57.2,32.0,29.61,SE,139,0.0,5.0,39,0.00,,,0.00,306,weatherlink.com 1.10,2013-03-22 15:55:00,
2013-03-22 09:10:00,59.1,32.0,29.61,SSW,213,1.0,9.0,36,0.00,,,0.00,320,weatherlink.com 1.10,2013-03-22 16:10:00,
2013-03-22 09:25:00,59.8,32.0,29.60,SW,221,7.0,12.0,35,0.00,,,0.00,260,weatherlink.com 1.10,2013-03-22 16:25:00,
2013-03-22 09:41:00,61.4,32.0,29.60,SW,220,1.0,9.0,33,0.00,,,0.00,285,weatherlink.com 1.10,2013-03-22 16:41:00,
2013-03-22 09:55:00,63.0,33.0,29.60,SE,131,5.0,10.0,32,0.00,,,0.00,708,weatherlink.com 1.10,2013-03-22 16:55:00,
2013-03-22 10:10:00,63.6,31.0,29.60,SW,219,6.0,15.0,30,0.00,,,0.00,740,weatherlink.com 1.10,2013-03-22 17:10:00,
2013-03-22 10:25:00,64.7,32.0,29.60,South,185,2.0,13.0,29,0.00,,,0.00,823,weatherlink.com 1.10,2013-03-22 17:25:00,
2013-03-22 10:40:00,67.0,31.0,29.59,SSE,167,3.0,12.0,26,0.00,,,0.00,875,weatherlink.com 1.10,2013-03-22 17:40:00,
2013-03-22 10:55:00,67.2,30.0,29.58,SSW,212,5.0,15.0,25,0.00,,,0.00,856,weatherlink.com 1.10,2013-03-22 17:55:00,
2013-03-22 11:10:00,67.5,29.0,29.57,SE,146,9.0,14.0,24,0.00,,,0.00,874,weatherlink.com 1.10,2013-03-22 18:10:00,
2013-03-22 11:25:00,67.3,30.0,29.57,South,174,12.0,19.0,25,0.00,,,0.00,886,weatherlink.com 1.10,2013-03-22 18:25:00,
2013-03-22 11:40:00,68.7,29.0,29.55,SSW,200,4.0,27.0,23,0.00,,,0.00,902,weatherlink.com 1.10,2013-03-22 18:40:00,
2013-03-22 11:55:00,69.0,28.0,29.54,SSW,206,22.0,33.0,22,0.00,,,0.00,919,weatherlink.com 1.10,2013-03-22 18:55:00,
2013-03-22 12:10:00,69.9,27.0,29.54,SW,214,22.0,25.0,20,0.00,,,0.00,923,weatherlink.com 1.10,2013-03-22 19:10:00,
2013-03-22 12:25:00,70.1,26.0,29.54,SW,232,13.0,22.0,19,0.00,,,0.00,923,weatherlink.com 1.10,2013-03-22 19:25:00,
2013-03-22 12:40:00,70.9,25.0,29.53,SSW,210,11.0,29.0,18,0.00,,,0.00,926,weatherlink.com 1.10,2013-03-22 19:40:00,
2013-03-22 12:55:00,70.3,25.0,29.54,WSW,258,13.0,25.0,18,0.00,,,0.00,925,weatherlink.com 1.10,2013-03-22 19:55:00,
2013-03-22 13:10:00,70.1,22.0,29.53,West,270,17.0,27.0,16,0.00,,,0.00,914,weatherlink.com 1.10,2013-03-22 20:10:00,
2013-03-22 13:25:00,70.8,24.0,29.53,WSW,252,15.0,26.0,17,0.00,,,0.00,904,weatherlink.com 1.10,2013-03-22 20:25:00,
2013-03-22 13:40:00,70.8,21.0,29.53,SW,228,22.0,25.0,15,0.00,,,0.00,888,weatherlink.com 1.10,2013-03-22 20:40:00,
2013-03-22 13:56:00,70.4,20.0,29.53,South,177,10.0,26.0,15,0.00,,,0.00,863,weatherlink.com 1.10,2013-03-22 20:56:00,
2013-03-22 14:10:00,70.9,19.0,29.52,WSW,241,22.0,27.0,14,0.00,,,0.00,837,weatherlink.com 1.10,2013-03-22 21:10:00,
2013-03-22 14:25:00,70.8,19.0,29.52,WSW,250,12.0,28.0,14,0.00,,,0.00,807,weatherlink.com 1.10,2013-03-22 21:25:00,
2013-03-22 14:40:00,71.0,19.0,29.52,SW,219,13.0,26.0,14,0.00,,,0.00,770,weatherlink.com 1.10,2013-03-22 21:40:00,
2013-03-22 14:55:00,70.4,19.0,29.51,SSW,199,25.0,29.0,14,0.00,,,0.00,735,weatherlink.com 1.10,2013-03-22 21:55:00,
2013-03-22 15:11:00,71.1,19.0,29.52,SW,231,11.0,26.0,14,0.00,,,0.00,694,weatherlink.com 1.10,2013-03-22 22:11:00,
2013-03-22 15:41:00,70.5,21.0,29.52,SSW,198,18.0,23.0,15,0.00,,,0.00,599,weatherlink.com 1.10,2013-03-22 22:41:00,
2013-03-22 15:56:00,69.9,23.0,29.52,WSW,254,8.0,26.0,17,0.00,,,0.00,550,weatherlink.com 1.10,2013-03-22 22:56:00,
2013-03-22 16:11:00,69.1,25.0,29.52,WSW,250,8.0,23.0,19,0.00,,,0.00,503,weatherlink.com 1.10,2013-03-22 23:11:00,
2013-03-22 16:26:00,68.1,25.0,29.52,SW,217,9.0,25.0,20,0.00,,,0.00,439,weatherlink.com 1.10,2013-03-22 23:26:00,
2013-03-22 16:41:00,66.9,27.0,29.52,SW,221,10.0,25.0,22,0.00,,,0.00,69,weatherlink.com 1.10,2013-03-22 23:41:00,
2013-03-22 16:56:00,67.2,25.0,29.52,SSW,205,18.0,22.0,20,0.00,,,0.00,47,weatherlink.com 1.10,2013-03-22 23:56:00,
2013-03-22 17:12:00,66.0,26.0,29.52,WSW,241,13.0,20.0,22,0.00,,,0.00,46,weatherlink.com 1.10,2013-03-23 00:12:00,
2013-03-22 17:26:00,66.7,27.0,29.52,WSW,257,10.0,22.0,22,0.00,,,0.00,202,weatherlink.com 1.10,2013-03-23 00:26:00,
2013-03-22 17:41:00,66.9,27.0,29.52,SSW,200,16.0,23.0,22,0.00,,,0.00,127,weatherlink.com 1.10,2013-03-23 00:41:00,
2013-03-22 17:56:00,66.7,25.0,29.53,WSW,254,6.0,18.0,21,0.00,,,0.00,72,weatherlink.com 1.10,2013-03-23 00:56:00,
2013-03-22 18:11:00,65.5,26.0,29.54,SSW,205,9.0,19.0,22,0.00,,,0.00,30,weatherlink.com 1.10,2013-03-23 01:11:00,
2013-03-22 18:26:00,64.5,26.0,29.54,SW,221,6.0,13.0,23,0.00,,,0.00,11,weatherlink.com 1.10,2013-03-23 01:26:00,
2013-03-22 18:41:00,63.3,24.0,29.55,SW,229,1.0,9.0,22,0.00,,,0.00,0,weatherlink.com 1.10,2013-03-23 01:41:00,
2013-03-22 18:56:00,62.3,23.0,29.57,WSW,247,0.0,8.0,22,0.00,,,0.00,0,weatherlink.com 1.10,2013-03-23 01:56:00,
2013-03-22 19:11:00,61.3,21.0,29.57,WSW,245,5.0,9.0,21,0.00,,,0.00,0,weatherlink.com 1.10,2013-03-23 02:11:00,
2013-03-22 19:26:00,61.0,21.0,29.58,WSW,240,6.0,9.0,21,0.00,,,0.00,0,weatherlink.com 1.10,2013-03-23 02:26:00,
2013-03-22 19:41:00,60.7,21.0,29.58,WSW,238,8.0,13.0,22,0.00,,,0.00,0,weatherlink.com 1.10,2013-03-23 02:41:00,
2013-03-22 19:56:00,60.3,21.0,29.58,SW,234,7.0,14.0,22,0.00,,,0.00,0,weatherlink.com 1.10,2013-03-23 02:56:00,
2013-03-22 20:11:00,60.4,21.0,29.59,WSW,245,11.0,16.0,22,0.00,,,0.00,0,weatherlink.com 1.10,2013-03-23 03:11:00,
2013-03-22 20:27:00,60.0,22.0,29.60,SW,229,6.0,13.0,23,0.00,,,0.00,0,weatherlink.com 1.10,2013-03-23 03:27:00,
2013-03-22 20:42:00,58.8,22.0,29.61,SW,235,3.0,7.0,24,0.00,,,0.00,0,weatherlink.com 1.10,2013-03-23 03:42:00,
2013-03-22 20:56:00,58.6,23.0,29.62,SW,231,2.0,10.0,25,0.00,,,0.00,0,weatherlink.com 1.10,2013-03-23 03:56:00,
2013-03-22 21:11:00,58.6,23.0,29.62,WSW,248,1.0,8.0,25,0.00,,,0.00,0,weatherlink.com 1.10,2013-03-23 04:11:00,
2013-03-22 21:27:00,57.1,23.0,29.64,SW,222,1.0,5.0,27,0.00,,,0.00,0,weatherlink.com 1.10,2013-03-23 04:27:00,
2013-03-22 21:42:00,56.5,24.0,29.65,SW,221,11.0,12.0,28,0.00,,,0.00,0,weatherlink.com 1.10,2013-03-23 04:42:00,
2013-03-22 21:57:00,57.5,25.0,29.65,SSW,211,5.0,14.0,29,0.00,,,0.00,0,weatherlink.com 1.10,2013-03-23 04:57:00,
2013-03-22 22:12:00,56.0,26.0,29.65,SSW,207,1.0,11.0,31,0.00,,,0.00,0,weatherlink.com 1.10,2013-03-23 05:12:00,
2013-03-22 22:27:00,55.0,26.0,29.65,South,188,1.0,9.0,33,0.00,,,0.00,0,weatherlink.com 1.10,2013-03-23 05:27:00,
2013-03-22 22:42:00,54.1,27.0,29.65,South,176,0.0,9.0,35,0.00,,,0.00,0,weatherlink.com 1.10,2013-03-23 05:42:00,
2013-03-22 22:57:00,53.5,28.0,29.66,South,189,0.0,4.0,37,0.00,,,0.00,0,weatherlink.com 1.10,2013-03-23 05:57:00,
2013-03-22 23:27:00,53.1,30.0,29.66,SSE,164,0.0,7.0,41,0.00,,,0.00,0,weatherlink.com 1.10,2013-03-23 06:27:00,
2013-03-22 23:42:00,53.5,30.0,29.66,SW,217,5.0,12.0,40,0.00,,,0.00,0,weatherlink.com 1.10,2013-03-23 06:42:00,
2013-03-22 23:57:00,52.8,29.0,29.66,SSW,205,3.0,10.0,41,0.00,,,0.00,0,weatherlink.com 1.10,2013-03-23 06:57:00,